createdAt,value
2019-04-04T00:02:25.808Z,40.10
2019-04-04T00:04:57.747Z,40.10
2019-04-04T00:07:29.078Z,40.30
2019-04-04T00:10:02.122Z,40.20
2019-04-04T00:12:33.669Z,40.10
2019-04-04T00:15:05.169Z,40.00
2019-04-04T00:17:35.648Z,40.00
2019-04-04T00:20:06.737Z,39.70
2019-04-04T00:22:37.814Z,39.90
2019-04-04T00:25:10.460Z,39.90
2019-04-04T00:27:42.035Z,39.90
2019-04-04T00:30:13.217Z,39.70
2019-04-04T00:32:43.577Z,39.70
2019-04-04T00:35:16.339Z,39.70
2019-04-04T00:37:46.941Z,39.70
2019-04-04T00:40:17.783Z,39.70
2019-04-04T00:42:48.505Z,39.70
2019-04-04T00:45:19.588Z,39.80
2019-04-04T00:47:50.310Z,39.80
2019-04-04T00:50:21.150Z,39.90
2019-04-04T00:52:51.867Z,40.10
2019-04-04T00:55:22.472Z,39.80
2019-04-04T00:57:52.953Z,39.80
2019-04-04T01:00:23.943Z,39.70
2019-04-04T01:02:58.337Z,39.80
2019-04-04T01:05:30.105Z,39.70
2019-04-04T01:08:01.115Z,39.80
2019-04-04T01:10:31.960Z,39.80
2019-04-04T01:13:02.799Z,39.80
2019-04-04T01:15:33.639Z,39.70
2019-04-04T01:18:06.177Z,39.80
2019-04-04T01:20:37.132Z,39.70
2019-04-04T01:23:07.963Z,39.70
2019-04-04T01:25:39.285Z,39.70
2019-04-04T01:28:10.246Z,39.80
2019-04-04T01:30:41.659Z,39.80
2019-04-04T01:33:13.252Z,39.80
2019-04-04T01:35:44.809Z,39.80
2019-04-04T01:38:15.411Z,39.80
2019-04-04T01:40:46.731Z,39.80
2019-04-04T01:43:18.173Z,39.80
2019-04-04T01:45:48.657Z,39.80
2019-04-04T01:48:19.741Z,39.80
2019-04-04T01:50:53.375Z,39.70
2019-04-04T01:53:22.620Z,40.30
2019-04-04T01:55:53.221Z,39.80
2019-04-04T01:58:23.582Z,39.90
2019-04-04T02:00:54.301Z,39.90
2019-04-04T02:03:24.905Z,39.80
2019-04-04T02:05:56.196Z,39.80
2019-04-04T02:08:27.669Z,39.90
2019-04-04T02:10:58.387Z,40.10
2019-04-04T02:13:29.230Z,40.00
2019-04-04T02:15:59.719Z,40.00
2019-04-04T02:18:30.191Z,40.00
2019-04-04T02:21:00.674Z,40.10
2019-04-04T02:23:32.197Z,40.10
2019-04-04T02:26:05.270Z,40.10
2019-04-04T02:28:36.208Z,40.10
2019-04-04T02:31:09.803Z,40.00
2019-04-04T02:33:41.002Z,40.10
2019-04-04T02:36:16.241Z,40.10
2019-04-04T02:39:00.774Z,40.10
2019-04-04T02:41:31.891Z,39.80
2019-04-04T02:44:02.606Z,40.30
2019-04-04T02:46:33.208Z,40.30
2019-04-04T02:49:04.170Z,40.50
2019-04-04T02:51:35.028Z,40.80
2019-04-04T02:54:05.971Z,40.90
2019-04-04T02:56:36.618Z,41.00
2019-04-04T02:59:07.293Z,41.10
2019-04-04T03:01:38.616Z,41.10
2019-04-04T03:04:13.409Z,41.40
2019-04-04T03:06:41.498Z,41.90
2019-04-04T03:09:12.097Z,42.00
2019-04-04T03:11:42.818Z,41.70
2019-04-04T03:14:13.542Z,41.60
2019-04-04T03:16:44.264Z,41.50
2019-04-04T03:19:14.983Z,41.80
2019-04-04T03:21:45.465Z,41.70
2019-04-04T03:24:16.669Z,41.80
2019-04-04T03:26:52.077Z,41.80
2019-04-04T03:29:19.189Z,41.70
2019-04-04T03:31:49.913Z,41.60
2019-04-04T03:34:20.393Z,41.80
2019-04-04T03:36:50.883Z,41.80
2019-04-04T03:39:22.830Z,41.80
2019-04-04T03:41:53.394Z,41.70
2019-04-04T03:44:23.883Z,41.90
2019-04-04T03:46:54.359Z,41.80
2019-04-04T03:49:25.078Z,41.90
2019-04-04T03:51:56.041Z,42.10
2019-04-04T03:54:27.963Z,41.90
2019-04-04T03:56:58.682Z,42.10
2019-04-04T03:59:29.624Z,42.00
2019-04-04T04:02:01.330Z,41.90
2019-04-04T04:04:31.806Z,41.90
2019-04-04T04:07:02.291Z,42.10
2019-04-04T04:09:32.890Z,42.00
2019-04-04T04:12:03.612Z,42.00
2019-04-04T04:14:34.571Z,41.90
2019-04-04T04:17:05.414Z,42.00
2019-04-04T04:19:36.137Z,42.10
2019-04-04T04:22:06.615Z,42.20
2019-04-04T04:24:37.097Z,42.10
2019-04-04T04:27:07.696Z,42.10
2019-04-04T04:29:38.456Z,42.10
2019-04-04T04:32:09.021Z,42.30
2019-04-04T04:34:39.380Z,42.40
2019-04-04T04:37:09.989Z,42.50
2019-04-04T04:39:41.432Z,42.40
2019-04-04T04:42:12.152Z,42.40
2019-04-04T04:44:42.868Z,42.50
2019-04-04T04:47:14.069Z,42.60
2019-04-04T04:49:44.669Z,42.70
2019-04-04T04:52:15.873Z,43.00
2019-04-04T04:54:46.353Z,43.10
2019-04-04T04:57:28.812Z,43.10
2019-04-04T04:59:49.115Z,43.20
2019-04-04T05:02:22.165Z,43.20
2019-04-04T05:04:51.760Z,43.90
2019-04-04T05:07:22.361Z,43.30
2019-04-04T05:09:53.202Z,43.50
2019-04-04T05:12:24.284Z,43.30
2019-04-04T05:14:55.120Z,43.30
2019-04-04T05:17:26.322Z,43.40
2019-04-04T05:19:58.004Z,43.40
2019-04-04T05:22:28.877Z,43.40
2019-04-04T05:25:07.838Z,43.60
2019-04-04T05:27:31.490Z,43.80
2019-04-04T05:30:02.210Z,43.80
2019-04-04T05:32:32.692Z,44.00
2019-04-04T05:35:03.654Z,44.10
2019-04-04T05:37:34.134Z,44.10
2019-04-04T05:40:05.098Z,44.20
2019-04-04T05:42:35.706Z,44.20
2019-04-04T05:45:07.744Z,44.10
2019-04-04T05:47:38.225Z,44.10
2019-04-04T05:50:11.335Z,44.10
2019-04-04T05:52:46.280Z,44.10
2019-04-04T05:55:16.740Z,44.30
2019-04-04T05:57:48.910Z,44.40
2019-04-04T06:00:20.368Z,44.30
2019-04-04T06:02:51.071Z,44.40
2019-04-04T06:05:22.319Z,44.50
2019-04-04T06:07:52.746Z,44.50
2019-04-04T06:10:23.948Z,44.60
2019-04-04T06:12:56.277Z,44.60
2019-04-04T06:15:26.592Z,44.60
2019-04-04T06:17:57.194Z,44.70
2019-04-04T06:20:27.911Z,44.80
2019-04-04T06:22:58.396Z,44.80
2019-04-04T06:25:34.211Z,44.80
2019-04-04T06:28:01.312Z,44.90
2019-04-04T06:30:42.562Z,44.70
2019-04-04T06:33:04.873Z,44.70
2019-04-04T06:35:35.964Z,44.80
2019-04-04T06:38:06.442Z,44.80
2019-04-04T06:40:37.164Z,44.80
2019-04-04T06:43:11.615Z,44.90
2019-04-04T06:45:40.047Z,44.80
2019-04-04T06:48:10.530Z,44.80
2019-04-04T06:50:43.012Z,44.90
2019-04-04T06:53:13.053Z,45.00
2019-04-04T06:55:44.012Z,45.00
2019-04-04T06:58:17.025Z,45.10
2019-04-04T07:00:50.003Z,45.00
2019-04-04T07:03:19.896Z,45.10
2019-04-04T07:05:50.378Z,45.10
2019-04-04T07:08:21.818Z,45.10
2019-04-04T07:10:57.905Z,44.90
2019-04-04T07:13:27.190Z,45.20
2019-04-04T07:16:06.156Z,45.00
2019-04-04T07:18:29.747Z,45.20
2019-04-04T07:21:03.434Z,45.10
2019-04-04T07:23:32.867Z,45.10
2019-04-04T07:26:03.830Z,45.20
2019-04-04T07:28:34.909Z,45.30
2019-04-04T07:31:05.631Z,45.20
2019-04-04T07:33:36.591Z,45.40
2019-04-04T07:36:07.191Z,45.10
2019-04-04T07:38:38.034Z,45.20
2019-04-04T07:41:09.162Z,45.20
2019-04-04T07:43:40.558Z,45.40
2019-04-04T07:46:16.607Z,45.40
2019-04-04T07:48:43.200Z,45.40
2019-04-04T07:51:13.809Z,45.30
2019-04-04T07:53:45.362Z,45.70
2019-04-04T07:56:15.964Z,45.70
2019-04-04T07:58:46.683Z,45.70
2019-04-04T08:01:17.773Z,45.40
2019-04-04T08:03:50.053Z,45.80
2019-04-04T08:06:24.247Z,45.60
2019-04-04T08:08:55.209Z,45.40
2019-04-04T08:11:26.483Z,45.80
2019-04-04T08:13:57.130Z,46.00
2019-04-04T08:16:27.733Z,45.50
2019-04-04T08:18:58.453Z,46.00
2019-04-04T08:21:29.057Z,45.70
2019-04-04T08:23:59.538Z,45.50
2019-04-04T08:26:30.737Z,45.50
2019-04-04T08:29:01.460Z,45.30
2019-04-04T08:31:32.062Z,45.30
2019-04-04T08:34:02.563Z,45.70
2019-04-04T08:36:35.705Z,46.50
2019-04-04T08:39:09.149Z,45.90
2019-04-04T08:41:39.866Z,46.10
2019-04-04T08:44:10.467Z,45.90
2019-04-04T08:46:40.949Z,45.90
2019-04-04T08:49:11.789Z,46.40
2019-04-04T08:51:42.755Z,45.70
2019-04-04T08:54:13.351Z,45.70
2019-04-04T08:56:45.394Z,45.20
2019-04-04T08:59:15.997Z,45.40
2019-04-04T09:01:46.477Z,45.50
2019-04-04T09:04:16.956Z,45.80
2019-04-04T09:06:47.558Z,45.50
2019-04-04T09:09:18.400Z,45.40
2019-04-04T09:11:49.603Z,45.50
2019-04-04T09:14:19.963Z,45.50
2019-04-04T09:16:50.683Z,45.50
2019-04-04T09:19:21.048Z,45.80
2019-04-04T09:21:51.648Z,45.50
2019-04-04T09:24:22.249Z,45.20
2019-04-04T09:26:53.209Z,45.60
2019-04-04T09:29:23.694Z,45.50
2019-04-04T09:31:54.533Z,45.70
2019-04-04T09:34:26.453Z,46.10
2019-04-04T09:36:57.893Z,45.60
2019-04-04T09:39:28.495Z,45.90
2019-04-04T09:41:58.977Z,45.90
2019-04-04T09:44:29.577Z,45.60
2019-04-04T09:47:05.704Z,45.50
2019-04-04T09:49:32.580Z,45.70
2019-04-04T09:52:04.740Z,45.70
2019-04-04T09:54:36.307Z,45.60
2019-04-04T09:57:07.029Z,45.70
2019-04-04T09:59:37.626Z,45.40
2019-04-04T10:02:08.359Z,45.40
2019-04-04T10:04:38.828Z,45.90
2019-04-04T10:07:09.789Z,45.90
2019-04-04T10:09:40.509Z,46.10
2019-04-04T10:12:11.231Z,46.40
2019-04-04T10:14:41.831Z,46.20
2019-04-04T10:17:12.434Z,46.20
2019-04-04T10:19:43.282Z,46.40
2019-04-04T10:22:13.995Z,46.40
2019-04-04T10:24:44.603Z,46.20
2019-04-04T10:27:15.322Z,46.10
2019-04-04T10:29:45.922Z,45.60
2019-04-04T10:32:16.639Z,45.70
2019-04-04T10:34:48.205Z,45.90
2019-04-04T10:37:19.165Z,46.20
2019-04-04T10:39:50.123Z,46.60
2019-04-04T10:42:20.607Z,46.50
2019-04-04T10:44:51.091Z,45.90
2019-04-04T10:47:22.769Z,46.20
2019-04-04T10:49:54.330Z,46.00
2019-04-04T10:52:25.292Z,45.60
2019-04-04T10:54:56.732Z,45.50
2019-04-04T10:57:27.456Z,45.10
2019-04-04T10:59:58.058Z,44.60
2019-04-04T11:02:28.537Z,44.80
2019-04-04T11:04:59.137Z,45.30
2019-04-04T11:07:29.750Z,44.60
2019-04-04T11:10:00.342Z,44.80
2019-04-04T11:12:34.080Z,45.20
2019-04-04T11:15:03.582Z,44.80
2019-04-04T11:17:34.061Z,44.40
2019-04-04T11:20:05.627Z,44.30
2019-04-04T11:22:41.988Z,44.10
2019-04-04T11:25:12.711Z,44.40
2019-04-04T11:27:43.192Z,44.60
2019-04-04T11:30:14.035Z,44.90
2019-04-04T11:32:44.876Z,44.60
2019-04-04T11:35:16.199Z,45.10
2019-04-04T11:37:46.794Z,44.70
2019-04-04T11:40:17.394Z,44.30
2019-04-04T11:42:48.595Z,44.10
2019-04-04T11:45:19.198Z,44.60
2019-04-04T11:47:51.124Z,44.00
2019-04-04T11:50:23.174Z,44.30
2019-04-04T11:52:53.770Z,44.50
2019-04-04T11:55:24.364Z,44.90
2019-04-04T11:57:55.089Z,44.60
2019-04-04T12:00:29.290Z,44.90
2019-04-04T12:02:59.890Z,44.40
2019-04-04T12:05:31.329Z,44.20
2019-04-04T12:08:01.810Z,44.50
2019-04-04T12:10:32.292Z,44.00
2019-04-04T12:13:02.892Z,44.60
2019-04-04T12:15:33.493Z,44.60
2019-04-04T12:18:04.094Z,45.00
2019-04-04T12:20:35.173Z,45.10
2019-04-04T12:23:06.031Z,45.70
2019-04-04T12:25:36.626Z,45.00
2019-04-04T12:28:08.184Z,44.70
2019-04-04T12:30:38.786Z,44.90
2019-04-04T12:33:09.262Z,44.60
2019-04-04T12:35:40.102Z,44.70
2019-04-04T12:38:10.704Z,45.10
2019-04-04T12:40:41.544Z,44.40
2019-04-04T12:43:12.268Z,43.60
2019-04-04T12:45:42.882Z,43.90
2019-04-04T12:48:13.349Z,44.40
2019-04-04T12:50:44.072Z,44.60
2019-04-04T12:53:14.792Z,44.50
2019-04-04T12:55:45.519Z,44.80
2019-04-04T12:58:16.006Z,44.90
2019-04-04T13:00:46.596Z,44.10
2019-04-04T13:03:18.156Z,44.20
2019-04-04T13:05:49.004Z,44.50
2019-04-04T13:08:40.006Z,43.90
2019-04-04T13:11:10.482Z,43.40
2019-04-04T13:13:41.209Z,43.40
2019-04-04T13:16:11.922Z,44.00
2019-04-04T13:18:42.525Z,44.60
2019-04-04T13:21:13.248Z,43.60
2019-04-04T13:23:44.447Z,43.90
2019-04-04T13:26:15.048Z,43.10
2019-04-04T13:28:45.531Z,43.30
2019-04-04T13:31:16.255Z,43.50
2019-04-04T13:33:47.092Z,43.40
2019-04-04T13:36:18.053Z,43.90
2019-04-04T13:38:48.776Z,43.50
2019-04-04T13:41:22.105Z,43.50
2019-04-04T13:43:53.427Z,43.20
2019-04-04T13:46:25.885Z,43.30
2019-04-04T13:48:56.106Z,43.30
2019-04-04T13:51:27.661Z,43.50
2019-04-04T13:53:58.984Z,43.90
2019-04-04T13:56:29.824Z,44.00
2019-04-04T13:59:04.465Z,43.90
2019-04-04T14:01:33.672Z,43.70
2019-04-04T14:04:04.272Z,43.60
2019-04-04T14:06:35.238Z,43.40
2019-04-04T14:09:11.930Z,43.80
2019-04-04T14:11:42.170Z,44.20
2019-04-04T14:14:13.033Z,44.80
2019-04-04T14:16:43.758Z,44.70
2019-04-04T14:19:14.355Z,43.50
2019-04-04T14:21:45.398Z,43.90
2019-04-04T14:24:15.921Z,43.90
2019-04-04T14:26:46.641Z,42.70
2019-04-04T14:29:27.134Z,42.80
2019-04-04T14:31:49.543Z,42.90
2019-04-04T14:34:20.848Z,43.00
2019-04-04T14:36:51.810Z,42.40
2019-04-04T14:39:22.524Z,42.60
2019-04-04T14:41:53.607Z,42.90
2019-04-04T14:44:24.929Z,43.00
2019-04-04T14:46:56.013Z,42.90
2019-04-04T14:49:26.854Z,42.70
2019-04-04T14:51:57.346Z,42.90
2019-04-04T14:54:29.273Z,42.80
2019-04-04T14:57:00.335Z,43.10
2019-04-04T14:59:30.937Z,43.00
2019-04-04T15:04:26.982Z,42.80
2019-04-04T15:06:57.821Z,43.50
2019-04-04T15:09:28.547Z,43.50
2019-04-04T15:12:00.223Z,43.40
2019-04-04T15:14:30.944Z,43.30
2019-04-04T15:17:01.665Z,43.30
2019-04-04T15:19:32.145Z,43.40
2019-04-04T15:22:02.987Z,43.60
2019-04-04T15:24:34.187Z,43.40
2019-04-04T15:27:05.874Z,43.50
2019-04-04T15:29:37.073Z,43.50
2019-04-04T15:32:07.917Z,43.10
2019-04-04T15:34:38.521Z,43.20
2019-04-04T15:37:09.599Z,43.50
2019-04-04T15:39:40.327Z,43.90
2019-04-04T15:42:10.797Z,44.10
2019-04-04T15:44:41.997Z,44.40
2019-04-04T15:47:12.483Z,44.80
2019-04-04T15:49:43.337Z,44.60
2019-04-04T15:52:14.647Z,44.60
2019-04-04T15:54:45.363Z,44.80
2019-04-04T15:57:16.207Z,44.50
2019-04-04T15:59:46.687Z,44.30
2019-04-04T16:02:17.169Z,44.10
2019-04-04T16:04:48.489Z,44.20
2019-04-04T16:07:19.449Z,44.30
2019-04-04T16:09:50.051Z,44.20
2019-04-04T16:12:20.533Z,44.40
2019-04-04T16:14:51.256Z,44.40
2019-04-04T16:17:22.457Z,44.40
2019-04-04T16:19:53.055Z,44.50
2019-04-04T16:22:23.540Z,44.50
2019-04-04T16:24:54.142Z,44.40
2019-04-04T16:27:25.224Z,44.60
2019-04-04T16:29:55.704Z,44.60
2019-04-04T16:32:26.305Z,44.60
2019-04-04T16:34:57.393Z,44.60
2019-04-04T16:37:27.866Z,44.60
2019-04-04T16:40:08.671Z,44.60
2019-04-04T16:42:31.230Z,45.00
2019-04-04T16:45:01.712Z,45.30
2019-04-04T16:47:33.870Z,45.70
2019-04-04T16:50:04.955Z,46.20
2019-04-04T16:52:35.675Z,46.60
2019-04-04T16:55:07.241Z,46.60
2019-04-04T16:57:37.959Z,46.50
2019-04-04T17:00:10.123Z,46.30
2019-04-04T17:02:42.157Z,46.30
2019-04-04T17:05:19.241Z,46.30
2019-04-04T17:07:50.200Z,46.20
2019-04-04T17:10:21.161Z,46.10
2019-04-04T17:12:52.171Z,46.30
2019-04-04T17:15:23.087Z,46.20
2019-04-04T17:17:55.006Z,46.10
2019-04-04T17:20:25.962Z,46.30
2019-04-04T17:22:56.694Z,46.10
2019-04-04T17:25:27.421Z,46.30
2019-04-04T17:27:58.619Z,46.50
2019-04-04T17:30:30.534Z,46.40
2019-04-04T17:33:01.146Z,46.50
2019-04-04T17:35:31.742Z,46.50
2019-04-04T17:38:02.696Z,46.10
2019-04-04T17:40:33.521Z,46.10
2019-04-04T17:43:04.020Z,45.80
2019-04-04T17:45:34.859Z,45.60
2019-04-04T17:48:05.462Z,45.50
2019-04-04T17:50:36.063Z,45.90
2019-04-04T17:53:06.789Z,46.20
2019-04-04T17:55:37.915Z,46.00
2019-04-04T17:58:08.233Z,46.10
2019-04-04T18:00:39.067Z,45.90
2019-04-04T18:03:09.432Z,45.80
2019-04-04T18:05:40.391Z,45.90
2019-04-04T18:08:10.994Z,45.70
2019-04-04T18:10:41.352Z,46.00
2019-04-04T18:13:11.955Z,45.90
2019-04-04T18:15:42.680Z,45.90
2019-04-04T18:18:13.286Z,45.90
2019-04-04T18:20:44.001Z,46.10
2019-04-04T18:23:15.251Z,46.60
2019-04-04T18:25:46.039Z,45.90
2019-04-04T18:28:16.523Z,45.90
2019-04-04T18:30:47.486Z,45.90
2019-04-04T18:33:19.701Z,45.90
2019-04-04T18:35:50.772Z,45.80
2019-04-04T18:38:21.806Z,45.90
2019-04-04T18:40:52.414Z,45.60
2019-04-04T18:43:23.132Z,45.40
2019-04-04T18:45:53.971Z,45.20
2019-04-04T18:48:25.649Z,45.30
2019-04-04T18:50:56.252Z,45.40
2019-04-04T18:53:27.101Z,45.80
2019-04-04T18:55:57.936Z,45.50
2019-04-04T18:58:28.896Z,45.80
2019-04-04T19:00:59.495Z,45.80
2019-04-04T19:03:30.342Z,45.80
2019-04-04T19:06:01.306Z,45.50
2019-04-04T19:08:32.503Z,45.80
2019-04-04T19:11:05.023Z,45.60
2019-04-04T19:13:44.224Z,45.80
2019-04-04T19:16:08.866Z,45.80
2019-04-04T19:18:39.346Z,45.70
2019-04-04T19:21:11.147Z,45.80
2019-04-04T19:23:49.110Z,45.90
2019-04-04T19:26:15.350Z,45.80
2019-04-04T19:28:45.834Z,46.60
2019-04-04T19:31:16.912Z,46.00
2019-04-04T19:33:48.593Z,45.70
2019-04-04T19:36:19.796Z,45.50
2019-04-04T19:38:50.278Z,45.50
2019-04-04T19:41:21.361Z,46.30
2019-04-04T19:43:53.398Z,45.80
2019-04-04T19:46:36.323Z,46.00
2019-04-04T19:48:56.762Z,45.80
2019-04-04T19:51:28.206Z,45.80
2019-04-04T19:54:00.490Z,46.00
2019-04-04T19:56:31.446Z,46.10
2019-04-04T19:59:03.851Z,45.90
2019-04-04T20:01:34.811Z,46.20
2019-04-04T20:04:05.888Z,46.20
2019-04-04T20:06:36.972Z,46.70
2019-04-04T20:09:08.536Z,46.00
2019-04-04T20:14:51.138Z,45.80
2019-04-04T20:17:21.976Z,46.10
2019-04-04T20:19:52.696Z,46.30
2019-04-04T20:22:23.178Z,46.00
2019-04-04T20:24:57.379Z,46.00
2019-04-04T20:27:27.268Z,45.80
2019-04-04T20:29:58.711Z,45.70
2019-04-04T20:32:29.305Z,45.80
2019-04-04T20:35:00.396Z,45.70
2019-04-04T20:37:31.350Z,45.40
2019-04-04T20:40:01.948Z,45.50
2019-04-04T20:42:34.227Z,45.70
2019-04-04T20:45:05.314Z,45.60
2019-04-04T20:47:36.154Z,45.70
2019-04-04T20:50:07.232Z,45.70
2019-04-04T20:52:43.595Z,45.90
2019-04-04T20:55:14.316Z,46.20
2019-04-04T20:57:44.918Z,46.00
2019-04-04T21:00:15.999Z,46.10
2019-04-04T21:02:46.598Z,45.90
2019-04-04T21:05:21.277Z,45.90
2019-04-04T21:07:51.760Z,46.10
2019-04-04T21:10:22.602Z,45.90
2019-04-04T21:12:53.091Z,45.80
2019-04-04T21:15:23.806Z,45.90
2019-04-04T21:17:54.531Z,46.00
2019-04-04T21:20:25.365Z,45.90
2019-04-04T21:22:55.850Z,45.90
2019-04-04T21:25:26.456Z,45.60
2019-04-04T21:27:57.052Z,45.70
2019-04-04T21:30:27.778Z,45.80
2019-04-04T21:32:58.376Z,45.60
2019-04-04T21:35:30.174Z,45.50
2019-04-04T21:38:01.138Z,45.70
2019-04-04T21:40:31.616Z,45.70
2019-04-04T21:43:02.943Z,45.80
2019-04-04T21:45:33.540Z,46.00
2019-04-04T21:48:04.261Z,45.60
2019-04-04T21:50:34.862Z,45.50
2019-04-04T21:53:05.466Z,45.40
2019-04-04T21:55:35.949Z,45.50
2019-04-04T21:58:06.793Z,45.80
2019-04-04T22:00:44.950Z,45.50
2019-04-04T22:03:15.792Z,45.20
2019-04-04T22:05:46.512Z,45.30
2019-04-04T22:08:16.992Z,45.50
2019-04-04T22:10:47.372Z,45.40
2019-04-04T22:13:17.840Z,45.60
2019-04-04T22:15:48.441Z,45.70
2019-04-04T22:18:19.156Z,45.90
2019-04-04T22:20:49.879Z,46.00
2019-04-04T22:23:20.842Z,45.80
2019-04-04T22:25:51.442Z,45.40
2019-04-04T22:28:22.287Z,45.40
2019-04-04T22:30:53.483Z,45.60
2019-04-04T22:33:24.085Z,45.60
2019-04-04T22:35:54.924Z,45.70
2019-04-04T22:38:25.766Z,46.10
2019-04-04T22:40:56.368Z,46.10
2019-04-04T22:43:26.970Z,45.90
2019-04-04T22:45:57.692Z,45.70
2019-04-04T22:48:28.293Z,45.50
2019-04-04T22:50:58.653Z,45.30
2019-04-04T22:53:29.259Z,45.40
2019-04-04T22:55:59.854Z,45.40
2019-04-04T22:58:30.938Z,45.60
2019-04-04T23:01:01.539Z,45.60
2019-04-04T23:03:32.258Z,45.60
2019-04-04T23:06:02.982Z,45.70
2019-04-04T23:08:33.464Z,45.90
2019-04-04T23:11:04.062Z,45.80
2019-04-04T23:13:35.629Z,45.80
2019-04-04T23:16:06.828Z,45.90
2019-04-04T23:18:38.628Z,46.00
2019-04-04T23:21:10.308Z,46.20
2019-04-04T23:23:40.797Z,46.00
2019-04-04T23:26:11.153Z,46.30
2019-04-04T23:28:41.633Z,46.30
2019-04-04T23:31:11.995Z,46.10
2019-04-04T23:33:42.479Z,46.10
2019-04-04T23:36:12.961Z,46.40
2019-04-04T23:38:43.677Z,46.40
2019-04-04T23:41:14.038Z,46.50
2019-04-04T23:43:45.001Z,46.60
2019-04-04T23:46:15.842Z,46.70
2019-04-04T23:48:46.444Z,47.00
2019-04-04T23:51:16.925Z,46.80
2019-04-04T23:53:47.407Z,46.80
2019-04-04T23:56:17.768Z,46.80
2019-04-04T23:58:48.372Z,47.00
